Time;durP1;ratioP1;P1;durP2;ratioP2;P2;SDS_P1;SDS_P2;PMS_P1;PMS_P2;Temp;Humidity;BMP_temperature;BMP_pressure;BME280_temperature;BME280_humidity;BME280_pressure;Samples;Min_cycle;Max_cycle;Signal;HPM_P1;HPM_P2
2022/12/11 00:01:52;;;;;;;39.88;19.83;;;;;;;5.29;60.60;101104.13;5064620;28;20068;-68
2022/12/11 00:04:20;;;;;;;39.80;17.48;;;;;;;5.27;60.96;101097.31;5058679;28;20049;-68
2022/12/11 00:06:49;;;;;;;38.88;19.05;;;;;;;5.31;60.95;101093.28;5064301;28;20056;-68
2022/12/11 00:09:17;;;;;;;37.83;17.63;;;;;;;5.28;60.96;101101.66;5051815;28;20047;-68
2022/12/11 00:11:45;;;;;;;40.97;17.95;;;;;;;5.30;60.80;101096.97;5062291;28;20220;-67
2022/12/11 00:14:14;;;;;;;36.33;16.98;;;;;;;5.31;60.91;101096.78;5063978;28;20081;-67
2022/12/11 00:16:42;;;;;;;36.78;17.15;;;;;;;5.30;60.72;101094.31;5047424;28;20085;-67
2022/12/11 00:19:10;;;;;;;42.42;19.13;;;;;;;5.29;61.11;101093.47;5050035;28;20045;-67
2022/12/11 00:21:37;;;;;;;38.63;17.25;;;;;;;5.30;60.50;101088.97;5055766;28;20117;-68
2022/12/11 00:24:07;;;;;;;39.13;17.40;;;;;;;5.29;61.10;101095.31;5050304;28;20053;-67
2022/12/11 00:26:35;;;;;;;38.17;19.05;;;;;;;5.30;60.94;101089.78;5064313;28;20071;-68
2022/12/11 00:29:03;;;;;;;35.13;17.95;;;;;;;5.29;60.92;101092.63;5047160;28;20490;-68
2022/12/11 00:31:31;;;;;;;37.47;16.23;;;;;;;5.29;60.61;101088.16;5052458;28;20064;-68
2022/12/11 00:34:01;;;;;;;36.17;17.67;;;;;;;5.18;61.12;101073.44;5057959;28;20076;-69
2022/12/11 00:36:29;;;;;;;33.13;16.25;;;;;;;5.30;60.67;101091.63;5062546;28;20055;-68
2022/12/11 00:38:56;;;;;;;38.05;17.77;;;;;;;5.30;60.87;101088.97;5056115;28;20055;-68
2022/12/11 00:41:25;;;;;;;33.70;17.10;;;;;;;5.33;60.33;101093.94;5061633;28;20060;-67
2022/12/11 00:43:53;;;;;;;32.40;16.30;;;;;;;5.32;60.64;101094.94;5062451;28;20068;-68
2022/12/11 00:46:21;;;;;;;32.97;16.83;;;;;;;5.31;60.74;101095.97;5058981;28;20122;-68
2022/12/11 00:48:49;;;;;;;36.72;16.83;;;;;;;5.28;61.18;101085.66;5062638;28;20484;-68
2022/12/11 00:51:18;;;;;;;34.70;17.23;;;;;;;5.27;60.73;101087.50;5059132;28;20055;-68
2022/12/11 00:53:45;;;;;;;33.58;16.67;;;;;;;5.27;60.79;101094.66;5058838;28;20053;-67
2022/12/11 00:56:15;;;;;;;31.63;15.80;;;;;;;5.28;60.61;101094.47;5064820;28;20561;-68
2022/12/11 00:58:45;;;;;;;35.22;17.58;;;;;;;5.23;61.09;101084.38;5064136;28;20045;-68
2022/12/11 01:01:20;;;;;;;35.60;16.83;;;;;;;5.27;61.17;101089.34;5062960;28;20049;-68
2022/12/11 01:03:48;;;;;;;36.40;15.73;;;;;;;5.26;60.91;101085.00;5060325;28;20059;-67
2022/12/11 01:06:18;;;;;;;28.63;15.38;;;;;;;5.27;60.79;101081.34;5057220;28;20125;-67
2022/12/11 01:08:46;;;;;;;34.33;16.70;;;;;;;5.27;60.92;101084.81;5059642;28;20041;-67
2022/12/11 01:11:15;;;;;;;36.00;16.67;;;;;;;5.25;61.02;101084.19;5050748;28;20131;-68
2022/12/11 01:13:43;;;;;;;32.28;16.17;;;;;;;5.25;60.93;101097.50;5065498;28;20067;-68
2022/12/11 01:16:13;;;;;;;37.45;17.90;;;;;;;5.25;61.01;101089.50;5065333;28;20059;-68
2022/12/11 01:18:41;;;;;;;30.95;17.25;;;;;;;5.23;61.18;101087.03;5056527;28;20099;-68
2022/12/11 01:21:12;;;;;;;34.40;17.95;;;;;;;5.23;60.96;101103.00;5063416;28;20063;-68
2022/12/11 01:23:40;;;;;;;32.83;16.15;;;;;;;5.24;61.06;101091.34;5054216;28;20108;-68
2022/12/11 01:26:09;;;;;;;31.23;15.65;;;;;;;5.23;61.18;101095.03;5064266;28;20144;-68
2022/12/11 01:28:37;;;;;;;32.95;16.60;;;;;;;5.21;61.45;101089.03;5062994;28;20049;-67
2022/12/11 01:31:08;;;;;;;30.90;15.70;;;;;;;5.21;61.15;101089.03;5064628;28;20053;-68
2022/12/11 01:33:38;;;;;;;33.17;16.15;;;;;;;5.22;61.02;101087.22;5061100;28;20057;-68
2022/12/11 01:36:10;;;;;;;35.05;16.48;;;;;;;5.23;61.24;101088.88;5061962;28;20045;-68
2022/12/11 01:38:38;;;;;;;35.38;16.33;;;;;;;5.21;61.20;101086.38;5053805;28;20051;-69
2022/12/11 01:41:09;;;;;;;30.30;15.93;;;;;;;5.20;61.57;101083.94;5063172;28;20104;-68
2022/12/11 01:43:59;;;;;;;29.88;16.05;;;;;;;5.22;61.64;101081.88;5066531;28;20045;-69
2022/12/11 01:46:28;;;;;;;30.58;15.82;;;;;;;5.21;61.41;101081.06;5066514;28;20051;-68
2022/12/11 01:48:58;;;;;;;31.13;16.58;;;;;;;5.22;61.11;101080.03;5070787;28;20049;-69
2022/12/11 01:51:29;;;;;;;33.28;16.73;;;;;;;5.22;61.49;101077.38;5060789;28;20052;-68
2022/12/11 01:54:00;;;;;;;32.67;15.82;;;;;;;5.22;61.23;101071.22;5063366;28;20131;-69
2022/12/11 01:56:32;;;;;;;35.80;17.33;;;;;;;5.21;61.34;101080.22;5056218;28;20048;-69
2022/12/11 01:59:06;;;;;;;30.98;15.98;;;;;;;5.21;61.50;101075.72;5063502;28;20132;-69
2022/12/11 02:01:37;;;;;;;32.03;16.17;;;;;;;5.21;61.45;101074.91;5059218;28;20131;-69
2022/12/11 02:04:08;;;;;;;32.58;16.38;;;;;;;5.21;61.91;101085.56;5057571;28;20045;-67
2022/12/11 02:06:38;;;;;;;29.33;14.93;;;;;;;5.20;61.19;101076.72;5064149;28;20072;-68
2022/12/11 02:09:09;;;;;;;33.25;16.13;;;;;;;5.21;61.84;101083.72;5060426;28;20109;-67
2022/12/11 02:11:50;;;;;;;25.88;14.85;;;;;;;5.19;61.79;101075.09;5059470;28;20100;-68
2022/12/11 02:14:28;;;;;;;31.75;15.50;;;;;;;5.20;61.90;101078.59;5058910;28;20041;-68
2022/12/11 02:17:04;;;;;;;30.10;14.57;;;;;;;5.20;61.76;101083.94;5059971;28;20141;-68
2022/12/11 02:19:50;;;;;;;28.67;15.65;;;;;;;5.19;61.21;101082.28;5061983;28;20057;-68
2022/12/11 02:22:27;;;;;;;30.15;15.02;;;;;;;5.21;61.47;101081.06;5057486;28;20414;-68
2022/12/11 02:25:08;;;;;;;27.38;13.85;;;;;;;5.21;61.35;101074.91;5057284;28;20116;-68
2022/12/11 02:27:44;;;;;;;29.08;15.02;;;;;;;5.17;61.37;101074.47;5059356;28;20044;-68
2022/12/11 02:30:15;;;;;;;28.02;14.20;;;;;;;5.19;61.93;101069.78;5062534;28;20048;-68
2022/12/11 02:32:47;;;;;;;27.90;14.63;;;;;;;5.20;61.68;101065.28;5066449;28;20065;-69
2022/12/11 02:35:19;;;;;;;28.92;14.98;;;;;;;5.20;61.63;101068.75;5055202;28;20061;-68
2022/12/11 02:37:49;;;;;;;27.15;13.75;;;;;;;5.19;61.48;101068.94;5055638;28;20543;-68
2022/12/11 02:40:22;;;;;;;27.80;14.63;;;;;;;5.22;61.92;101068.56;5053750;28;20041;-69
2022/12/11 02:42:52;;;;;;;26.52;13.50;;;;;;;5.20;61.92;101071.41;5050090;28;20055;-68
2022/12/11 02:45:23;;;;;;;28.58;14.05;;;;;;;5.21;61.64;101064.25;5063501;28;20414;-68
2022/12/11 02:47:52;;;;;;;26.77;14.32;;;;;;;5.20;61.41;101062.63;5064030;28;20049;-68
2022/12/11 02:50:22;;;;;;;31.70;15.95;;;;;;;5.23;61.75;101070.22;5059362;28;20045;-68
2022/12/11 02:52:54;;;;;;;26.55;14.35;;;;;;;5.21;61.72;101070.41;5064238;28;20044;-68
2022/12/11 02:55:26;;;;;;;26.85;14.02;;;;;;;5.21;61.50;101069.56;5062016;28;20081;-68
2022/12/11 02:58:02;;;;;;;24.95;13.55;;;;;;;5.20;61.56;101071.41;5053210;28;20049;-68
2022/12/11 03:00:32;;;;;;;28.25;14.00;;;;;;;5.19;61.41;101068.94;5061336;28;20132;-68
2022/12/11 03:02:59;;;;;;;25.05;14.25;;;;;;;5.20;61.88;101065.28;5055650;28;20160;-68
2022/12/11 03:05:27;;;;;;;26.60;14.73;;;;;;;5.16;62.08;101056.00;5062292;28;20045;-68
2022/12/11 03:07:55;;;;;;;26.17;14.20;;;;;;;5.19;61.88;101063.63;5064919;28;20045;-69
2022/12/11 03:10:24;;;;;;;27.02;13.82;;;;;;;5.16;62.15;101056.81;5051717;28;20049;-69
2022/12/11 03:12:55;;;;;;;25.08;13.57;;;;;;;5.16;61.58;101056.81;5060229;28;20063;-68
2022/12/11 03:15:29;;;;;;;22.73;12.63;;;;;;;5.16;62.15;101054.16;5045939;28;20065;-68
2022/12/11 03:18:03;;;;;;;23.02;13.57;;;;;;;5.17;61.64;101050.47;5059701;28;20044;-68
2022/12/11 03:20:37;;;;;;;23.98;13.52;;;;;;;5.16;62.12;101050.66;5058817;28;20052;-68
2022/12/11 03:23:15;;;;;;;27.77;14.30;;;;;;;5.08;61.80;101040.91;5060144;28;20052;-68
2022/12/11 03:25:50;;;;;;;26.23;13.90;;;;;;;5.16;61.95;101058.66;5063424;28;20049;-68
2022/12/11 03:28:20;;;;;;;27.58;13.35;;;;;;;5.09;61.87;101045.22;5059770;28;20101;-68
2022/12/11 03:30:51;;;;;;;23.13;12.55;;;;;;;5.12;62.02;101052.03;5064257;28;20045;-68
2022/12/11 03:33:25;;;;;;;24.95;12.90;;;;;;;5.15;62.25;101046.34;5065227;28;20045;-68
2022/12/11 03:35:56;;;;;;;22.60;13.48;;;;;;;5.15;61.87;101047.19;5060396;28;20068;-69
2022/12/11 03:38:28;;;;;;;19.85;11.40;;;;;;;5.16;61.87;101050.66;5062226;28;20063;-68
2022/12/11 03:41:00;;;;;;;22.88;11.50;;;;;;;5.14;62.26;101040.19;5056609;28;20056;-68
2022/12/11 03:43:29;;;;;;;21.27;12.23;;;;;;;5.13;61.85;101041.19;5050991;28;20045;-69
2022/12/11 03:45:59;;;;;;;24.02;13.27;;;;;;;5.12;61.71;101034.22;5063639;28;20056;-69
2022/12/11 03:48:33;;;;;;;22.25;12.90;;;;;;;5.12;61.88;101036.06;5061857;28;20040;-69
2022/12/11 03:51:03;;;;;;;20.85;11.80;;;;;;;5.12;62.01;101030.72;5057328;28;20052;-69
2022/12/11 03:53:33;;;;;;;21.67;12.77;;;;;;;5.15;61.80;101027.69;5064238;28;20049;-69
2022/12/11 03:56:02;;;;;;;24.80;13.30;;;;;;;5.13;62.13;101019.06;5062077;28;20052;-69
2022/12/11 03:58:30;;;;;;;20.92;11.43;;;;;;;5.10;61.95;101017.59;5058318;28;20044;-69
2022/12/11 04:00:58;;;;;;;25.63;12.73;;;;;;;5.13;61.69;101016.41;5054361;28;20554;-69
2022/12/11 04:03:26;;;;;;;22.13;12.77;;;;;;;5.10;61.71;101020.25;5064998;28;20163;-69
2022/12/11 04:05:55;;;;;;;21.05;12.38;;;;;;;5.11;62.28;101029.91;5048735;28;20053;-68
2022/12/11 04:08:23;;;;;;;20.40;11.70;;;;;;;5.11;62.42;101019.25;5060955;28;20059;-68
2022/12/11 04:11:33;;;;;;;22.70;12.80;;;;;;;5.11;61.84;101026.41;5062110;28;20049;-68
2022/12/11 04:13:41;;;;;;;18.35;11.68;;;;;;;5.13;61.46;101022.56;5056436;28;20045;-68
2022/12/11 04:16:08;;;;;;;18.58;11.07;;;;;;;5.11;61.62;101021.91;5058636;28;20053;-68
2022/12/11 04:24:16;;;;;;;19.65;11.85;;;;;;;5.10;61.63;101024.75;5040944;28;20041;-68
2022/12/11 04:26:46;;;;;;;16.90;10.57;;;;;;;5.10;61.86;101022.91;5034467;28;20045;-67
2022/12/11 04:29:14;;;;;;;15.38;10.18;;;;;;;5.10;61.45;101030.91;5028273;28;20239;-68
2022/12/11 04:31:42;;;;;;;16.48;10.07;;;;;;;5.12;61.40;101025.41;5026627;28;20050;-69
2022/12/11 04:34:10;;;;;;;16.02;9.77;;;;;;;5.10;61.63;101020.25;5039799;28;20136;-68
2022/12/11 04:36:39;;;;;;;16.65;10.55;;;;;;;5.10;61.59;101022.09;5040776;28;20089;-69
2022/12/11 04:39:06;;;;;;;16.83;9.63;;;;;;;4.99;61.92;101002.06;5032680;28;20045;-69
2022/12/11 04:41:36;;;;;;;17.40;9.73;;;;;;;5.10;61.44;101025.56;5038785;28;20049;-69
2022/12/11 04:44:04;;;;;;;16.50;9.68;;;;;;;5.11;61.63;101023.75;5031507;28;20053;-69
2022/12/11 04:46:32;;;;;;;16.13;10.45;;;;;;;5.11;61.30;101019.25;5032201;28;20061;-69
2022/12/11 04:48:59;;;;;;;18.77;9.70;;;;;;;5.11;61.39;101016.56;5038386;28;20061;-69
2022/12/11 04:51:28;;;;;;;13.55;9.25;;;;;;;5.08;61.31;101002.78;5030159;28;20152;-69
2022/12/11 04:53:58;;;;;;;15.50;9.45;;;;;;;5.10;61.38;101008.78;5038893;28;20056;-69
2022/12/11 04:56:26;;;;;;;15.73;9.20;;;;;;;5.09;61.20;101007.13;5043447;28;20557;-69
2022/12/11 04:58:53;;;;;;;14.27;9.13;;;;;;;5.07;61.41;101007.28;5056586;28;20072;-69
2022/12/11 05:01:22;;;;;;;15.00;9.25;;;;;;;5.04;62.05;101001.50;5062149;28;20129;-68
2022/12/11 05:03:50;;;;;;;13.15;8.60;;;;;;;5.04;61.64;100991.69;5059545;28;20041;-68
2022/12/11 05:06:18;;;;;;;15.88;9.63;;;;;;;5.08;61.61;100998.28;5056207;28;20136;-69
2022/12/11 05:08:46;;;;;;;17.85;10.05;;;;;;;5.08;61.41;100995.63;5057750;28;20124;-69
2022/12/11 05:11:15;;;;;;;15.88;8.48;;;;;;;5.07;61.46;101009.97;5058752;28;20053;-67
2022/12/11 05:13:44;;;;;;;17.08;9.40;;;;;;;5.08;61.19;100995.63;5055249;28;20131;-68
2022/12/11 05:16:14;;;;;;;14.75;8.45;;;;;;;5.09;61.11;101004.44;5059229;28;20042;-68
2022/12/11 05:18:42;;;;;;;14.88;9.48;;;;;;;5.09;61.36;100996.47;5063020;28;20049;-68
2022/12/11 05:21:11;;;;;;;16.98;9.50;;;;;;;5.07;61.07;100987.81;5058746;28;20140;-68
2022/12/11 05:23:39;;;;;;;17.85;8.70;;;;;;;5.07;61.31;100985.97;5059854;28;20045;-67
2022/12/11 05:26:11;;;;;;;13.30;8.50;;;;;;;5.09;60.72;100988.47;5059946;28;20152;-68
2022/12/11 05:28:40;;;;;;;14.93;8.32;;;;;;;5.09;61.17;100985.81;5048241;28;20052;-68
2022/12/11 05:31:11;;;;;;;15.88;9.57;;;;;;;5.07;61.16;100987.81;5053935;28;20085;-68
2022/12/11 05:33:40;;;;;;;13.35;8.32;;;;;;;5.08;61.16;100987.63;5064037;28;20072;-68
2022/12/11 05:36:08;;;;;;;14.63;8.73;;;;;;;5.06;61.46;100986.16;5047567;28;20045;-68
2022/12/11 05:38:36;;;;;;;15.75;8.55;;;;;;;5.09;61.49;100983.13;5050177;28;20136;-68
2022/12/11 05:41:06;;;;;;;14.35;8.52;;;;;;;5.10;60.91;100987.47;5057490;28;20160;-67
2022/12/11 05:43:36;;;;;;;12.55;8.15;;;;;;;5.06;61.37;100976.34;5055684;28;20104;-68
2022/12/11 05:46:10;;;;;;;14.90;8.38;;;;;;;5.09;60.78;100989.28;5061448;28;20049;-68
2022/12/11 05:48:38;;;;;;;15.75;8.35;;;;;;;5.08;61.12;100990.31;5061631;28;20105;-68
2022/12/11 05:51:07;;;;;;;14.15;8.30;;;;;;;5.10;61.19;100992.78;5057539;28;20041;-69
2022/12/11 05:53:35;;;;;;;15.15;8.75;;;;;;;5.08;61.41;100992.97;5055940;28;20052;-69
2022/12/11 05:56:05;;;;;;;13.38;7.93;;;;;;;5.08;61.19;100995.63;5063956;28;20515;-68
2022/12/11 05:58:33;;;;;;;14.50;8.65;;;;;;;5.02;61.26;100988.38;5066257;28;20045;-69
2022/12/11 06:01:01;;;;;;;15.00;8.45;;;;;;;5.06;61.05;100991.50;5071727;28;20045;-69
2022/12/11 06:03:30;;;;;;;13.75;8.38;;;;;;;5.12;61.34;100998.75;4709653;28;10000151;-69
2022/12/11 06:06:01;;;;;;;14.13;8.38;;;;;;;5.24;60.94;100998.09;5061145;28;20329;-69
2022/12/11 06:08:29;;;;;;;10.90;7.22;;;;;;;5.36;59.99;100997.63;5058249;28;20128;-69
2022/12/11 06:10:57;;;;;;;12.60;7.97;;;;;;;5.51;60.02;100990.47;5053266;28;20056;-70
2022/12/11 06:13:25;;;;;;;12.45;7.70;;;;;;;5.58;59.26;100988.72;5057026;28;20497;-69
2022/12/11 06:15:53;;;;;;;14.77;7.80;;;;;;;5.80;58.75;100995.75;5052275;28;20057;-69
2022/12/11 06:18:21;;;;;;;11.48;7.45;;;;;;;5.98;58.19;101000.72;5048492;28;20145;-69
2022/12/11 06:20:50;;;;;;;11.57;7.28;;;;;;;6.13;57.78;100993.50;5049160;28;20052;-70
2022/12/11 06:23:17;;;;;;;13.63;8.02;;;;;;;6.29;57.33;100991.59;5062796;28;20069;-69
2022/12/11 06:25:45;;;;;;;14.27;9.05;;;;;;;6.42;56.74;100984.53;5047138;28;20055;-69
2022/12/11 06:28:13;;;;;;;12.98;7.60;;;;;;;6.53;56.65;100989.38;5058903;28;20103;-69
2022/12/11 06:30:40;;;;;;;11.13;6.78;;;;;;;6.67;56.24;100986.81;5059931;28;20053;-69
2022/12/11 06:33:09;;;;;;;11.40;7.32;;;;;;;6.79;55.98;100987.94;5050919;28;20044;-69
2022/12/11 06:35:36;;;;;;;11.77;8.07;;;;;;;6.74;56.08;100985.84;5040878;28;20117;-69
2022/12/11 06:38:10;;;;;;;12.27;7.90;;;;;;;6.64;55.85;100989.88;5053829;28;20056;-69
2022/12/11 06:40:38;;;;;;;13.30;7.57;;;;;;;6.43;56.67;100991.53;5057215;28;20044;-68
2022/12/11 06:43:06;;;;;;;11.93;7.80;;;;;;;6.26;56.86;100989.31;5058002;28;20049;-69
2022/12/11 06:45:34;;;;;;;12.63;7.43;;;;;;;6.12;57.58;100983.00;5058858;28;20395;-69
2022/12/11 06:48:02;;;;;;;13.93;7.60;;;;;;;5.98;57.97;100976.69;5061273;28;20083;-68
2022/12/11 06:50:29;;;;;;;12.32;7.47;;;;;;;5.90;58.12;100970.66;5053882;28;20112;-69
2022/12/11 06:53:00;;;;;;;10.98;6.68;;;;;;;5.79;58.76;100971.94;5061361;28;20121;-69
2022/12/11 06:55:29;;;;;;;14.52;8.70;;;;;;;5.77;59.13;100980.13;5055492;28;20136;-68
2022/12/11 06:57:57;;;;;;;12.30;7.60;;;;;;;5.72;58.87;100977.19;5059834;28;20057;-69
2022/12/11 07:00:26;;;;;;;11.88;7.55;;;;;;;5.70;59.31;100989.88;5049101;28;20124;-69
2022/12/11 07:02:53;;;;;;;12.98;8.27;;;;;;;5.67;58.87;100992.09;5057414;28;20044;-69
2022/12/11 07:05:21;;;;;;;14.70;8.55;;;;;;;5.62;59.18;100994.50;5058932;28;20060;-69
2022/12/11 07:07:49;;;;;;;12.88;8.48;;;;;;;5.60;59.60;100999.19;5053508;28;20045;-70
2022/12/11 07:10:17;;;;;;;15.60;9.38;;;;;;;5.55;59.42;101003.22;5061433;28;20057;-68
2022/12/11 07:12:46;;;;;;;14.13;9.00;;;;;;;5.51;59.57;101004.63;5050617;28;20113;-68
2022/12/11 07:15:13;;;;;;;13.25;8.13;;;;;;;5.48;59.76;101006.81;5062727;28;20053;-68
2022/12/11 07:17:41;;;;;;;15.90;9.27;;;;;;;5.46;59.77;101000.84;5061298;28;20057;-68
2022/12/11 07:20:10;;;;;;;13.98;8.48;;;;;;;5.47;59.67;101006.00;5059950;28;20112;-68
2022/12/11 07:22:38;;;;;;;15.82;9.68;;;;;;;5.42;59.79;101004.88;5060105;28;20064;-68
2022/12/11 07:25:13;;;;;;;12.50;8.88;;;;;;;5.38;59.71;101008.94;5054223;28;20057;-69
2022/12/11 07:27:41;;;;;;;16.17;9.90;;;;;;;5.35;59.97;101003.97;5059776;28;20045;-68
2022/12/11 07:30:11;;;;;;;14.95;9.05;;;;;;;5.36;60.34;101008.28;5059184;28;20053;-68
2022/12/11 07:32:39;;;;;;;15.95;9.02;;;;;;;5.34;59.82;101007.66;5058068;28;20453;-69
2022/12/11 07:35:08;;;;;;;15.77;9.73;;;;;;;5.32;60.43;101007.84;5044072;28;20068;-67
2022/12/11 07:37:37;;;;;;;16.60;9.23;;;;;;;5.30;59.91;101012.53;5052089;28;20515;-69
2022/12/11 07:40:05;;;;;;;15.57;9.23;;;;;;;5.29;60.47;101016.19;5050842;28;20457;-68
2022/12/11 07:42:33;;;;;;;15.07;8.93;;;;;;;5.27;60.41;101014.72;5056421;28;20084;-69
2022/12/11 07:45:01;;;;;;;15.57;9.10;;;;;;;5.27;59.89;101015.56;5057135;28;20110;-69
2022/12/11 07:47:30;;;;;;;16.15;9.07;;;;;;;5.24;60.58;101011.41;5056945;28;20050;-69
2022/12/11 07:49:57;;;;;;;15.20;9.57;;;;;;;5.24;60.11;101014.09;5051668;28;20065;-70
2022/12/11 07:52:25;;;;;;;15.23;8.40;;;;;;;5.34;59.82;101011.13;5053915;28;20054;-68
2022/12/11 07:54:53;;;;;;;15.95;9.15;;;;;;;5.53;59.44;101015.09;5060234;28;20120;-69
2022/12/11 07:57:20;;;;;;;15.32;8.55;;;;;;;5.69;59.29;101012.22;5056489;28;20584;-68
2022/12/11 07:59:48;;;;;;;16.88;8.50;;;;;;;5.87;58.69;101002.00;5048212;28;20056;-67
2022/12/11 08:02:16;;;;;;;17.63;9.38;;;;;;;5.99;57.80;100998.88;5053117;28;20088;-68
2022/12/11 08:04:45;;;;;;;13.13;8.63;;;;;;;6.22;57.79;101001.38;5051368;28;20045;-72
2022/12/11 08:07:13;;;;;;;15.15;9.13;;;;;;;6.25;57.08;100987.66;5057547;28;20059;-70
2022/12/11 08:09:41;;;;;;;17.73;9.05;;;;;;;6.49;56.73;101009.47;5060186;28;20088;-72
2022/12/11 08:12:09;;;;;;;16.08;9.30;;;;;;;6.63;56.37;101006.91;5054455;28;20059;-70
2022/12/11 08:14:36;;;;;;;14.48;8.25;;;;;;;6.78;56.16;100996.97;5049582;28;20081;-70
2022/12/11 08:17:04;;;;;;;15.10;7.97;;;;;;;6.84;55.39;100994.34;5055508;28;20135;-69
2022/12/11 08:19:32;;;;;;;14.80;8.25;;;;;;;6.98;55.59;100997.91;5060306;28;20091;-67
2022/12/11 08:22:01;;;;;;;14.65;8.07;;;;;;;7.04;54.84;100999.81;5060363;28;20059;-67
2022/12/11 08:24:28;;;;;;;17.00;8.13;;;;;;;6.98;55.49;101003.25;5051610;28;20053;-68
2022/12/11 08:26:56;;;;;;;15.57;8.02;;;;;;;6.82;55.59;101007.06;5050971;28;20068;-67
2022/12/11 08:29:24;;;;;;;14.02;8.32;;;;;;;6.65;55.97;101008.38;5048268;28;20056;-67
2022/12/11 08:31:52;;;;;;;14.65;8.52;;;;;;;6.48;56.67;101007.81;5050427;28;20051;-65
2022/12/11 08:34:19;;;;;;;14.85;8.52;;;;;;;6.34;57.11;101007.88;5049578;28;20048;-68
2022/12/11 08:36:50;;;;;;;13.80;8.27;;;;;;;6.23;57.59;101011.03;5051088;28;20064;-69
2022/12/11 08:39:19;;;;;;;13.43;8.85;;;;;;;6.17;57.82;100999.28;5054964;28;20092;-68
2022/12/11 08:41:46;;;;;;;14.10;8.30;;;;;;;6.07;57.98;101007.59;5048810;28;20076;-68
2022/12/11 08:44:14;;;;;;;13.15;7.97;;;;;;;6.01;58.45;101007.50;5058786;28;20120;-71
2022/12/11 08:46:43;;;;;;;16.38;9.10;;;;;;;5.94;58.56;101007.44;5049207;28;20041;-70
2022/12/11 08:49:11;;;;;;;13.18;8.18;;;;;;;5.86;58.90;101000.34;5052490;28;20557;-70
2022/12/11 08:51:39;;;;;;;15.00;8.77;;;;;;;5.82;58.83;101006.22;5044031;28;20131;-66
2022/12/11 08:54:07;;;;;;;13.73;8.40;;;;;;;5.77;58.60;101006.78;5046213;28;20049;-68
2022/12/11 08:56:36;;;;;;;16.25;8.77;;;;;;;5.73;58.94;101000.19;5044248;28;20041;-68
2022/12/11 08:59:05;;;;;;;12.50;8.07;;;;;;;5.70;59.12;101005.88;5059921;28;20064;-67
2022/12/11 09:01:33;;;;;;;14.45;7.68;;;;;;;5.67;59.12;101011.59;5053106;28;20049;-69
2022/12/11 09:04:01;;;;;;;14.50;8.52;;;;;;;5.65;59.14;101010.13;5056422;28;20048;-69
2022/12/11 09:06:32;;;;;;;14.82;8.52;;;;;;;5.63;59.42;101004.16;5051481;28;20137;-68
2022/12/11 09:09:01;;;;;;;14.65;8.20;;;;;;;5.62;59.61;101008.66;5043494;28;20083;-66
2022/12/11 09:11:31;;;;;;;31.27;10.55;;;;;;;5.62;59.51;101007.81;5056270;28;20060;-67
2022/12/11 09:14:01;;;;;;;15.90;8.50;;;;;;;5.65;59.34;101002.13;5059851;28;20055;-68
2022/12/11 09:16:38;;;;;;;16.60;8.48;;;;;;;5.81;58.99;100993.91;5058166;28;20093;-72
2022/12/11 09:19:08;;;;;;;16.70;9.00;;;;;;;5.94;58.71;100998.59;5066554;28;20064;-67
2022/12/11 09:21:35;;;;;;;14.70;9.35;;;;;;;5.93;58.00;100973.78;5066799;28;20079;-67
2022/12/11 09:24:04;;;;;;;17.27;9.60;;;;;;;6.15;58.05;100988.78;5052275;28;20334;-68
2022/12/11 09:26:31;;;;;;;18.02;10.35;;;;;;;6.27;57.87;100996.28;5053965;28;20079;-67
2022/12/11 09:29:03;;;;;;;15.50;8.85;;;;;;;6.31;57.16;100976.22;5050791;28;20073;-67
2022/12/11 09:31:33;;;;;;;14.20;8.27;;;;;;;6.57;56.83;100988.97;5047510;28;20056;-66
2022/12/11 09:34:04;;;;;;;15.15;8.73;;;;;;;6.68;56.04;100986.63;5058473;28;20076;-65
2022/12/11 09:36:33;;;;;;;16.65;9.48;;;;;;;6.80;56.10;100987.75;5046301;28;20049;-68
2022/12/11 09:39:02;;;;;;;14.82;9.27;;;;;;;6.92;55.72;100988.03;5063023;28;20059;-68
2022/12/11 09:41:39;;;;;;;18.88;9.27;;;;;;;7.00;54.94;100987.03;5068740;28;20052;-68
2022/12/11 09:44:19;;;;;;;17.95;9.63;;;;;;;7.11;55.04;100994.50;5055837;28;20068;-67
2022/12/11 09:46:48;;;;;;;16.83;9.25;;;;;;;7.03;54.84;100990.16;5066989;28;20121;-67
2022/12/11 09:49:24;;;;;;;15.35;9.32;;;;;;;6.89;55.64;100985.75;5065720;28;20092;-67
2022/12/11 09:52:03;;;;;;;15.68;8.18;;;;;;;6.73;55.57;100992.22;5065610;28;20144;-68
2022/12/11 09:54:32;;;;;;;14.55;8.85;;;;;;;6.55;56.41;100983.00;5062117;28;20045;-68
2022/12/11 09:57:10;;;;;;;15.55;8.85;;;;;;;6.42;56.94;100997.88;5057771;28;20076;-72
2022/12/11 09:59:53;;;;;;;15.77;9.32;;;;;;;6.29;57.04;101000.44;5069915;28;20132;-76
2022/12/11 10:02:34;;;;;;;18.13;9.27;;;;;;;6.19;57.71;100982.06;5054067;28;20491;-76
2022/12/11 10:05:14;;;;;;;18.90;9.50;;;;;;;6.14;57.81;100979.13;5055008;28;20071;-75
2022/12/11 10:07:49;;;;;;;17.17;8.57;;;;;;;6.09;58.00;100973.53;5065999;28;20049;-81
2022/12/11 10:10:29;;;;;;;16.45;9.27;;;;;;;6.04;58.28;100975.94;5066441;28;20049;-76
2022/12/11 10:13:05;;;;;;;16.75;8.52;;;;;;;5.98;58.41;100974.03;5064922;28;20501;-78
2022/12/11 10:15:43;;;;;;;15.30;8.23;;;;;;;5.93;58.41;100976.44;5062257;28;20128;-74
2022/12/11 10:18:16;;;;;;;17.63;9.93;;;;;;;5.91;58.36;100983.81;5066886;28;20049;-76
2022/12/11 10:20:44;;;;;;;18.27;9.60;;;;;;;5.86;58.70;100979.00;5064780;28;20068;-73
2022/12/11 10:23:18;;;;;;;20.55;10.00;;;;;;;5.83;58.98;100981.22;5059915;28;20085;-74
2022/12/11 10:25:53;;;;;;;16.30;9.30;;;;;;;5.74;59.01;100975.16;5058542;28;20045;-72
2022/12/11 10:28:21;;;;;;;15.50;8.77;;;;;;;5.78;58.92;100984.44;5060485;28;20057;-75
2022/12/11 10:30:59;;;;;;;15.27;9.18;;;;;;;5.79;59.14;100979.94;5045748;28;20064;-75
2022/12/11 10:33:34;;;;;;;18.35;9.50;;;;;;;5.74;59.21;100975.16;5061049;28;20057;-74
2022/12/11 10:36:02;;;;;;;14.23;8.65;;;;;;;5.69;59.20;100969.56;5062689;28;20048;-74
2022/12/11 10:38:32;;;;;;;20.30;9.30;;;;;;;5.72;59.03;100982.53;5061095;28;20136;-75
2022/12/11 10:41:02;;;;;;;17.20;8.80;;;;;;;5.72;59.47;100985.19;5052384;28;20049;-74
2022/12/11 10:43:34;;;;;;;18.50;8.52;;;;;;;5.85;58.85;100976.53;5057567;28;20065;-73
2022/12/11 10:46:06;;;;;;;12.88;7.68;;;;;;;6.01;58.49;100972.84;5050508;28;20113;-71
2022/12/11 10:48:34;;;;;;;13.65;7.90;;;;;;;6.16;58.44;100966.44;4707636;28;10000195;-71
2022/12/11 10:51:05;;;;;;;14.98;7.78;;;;;;;6.36;57.81;100965.78;5060618;28;20238;-70
2022/12/11 10:53:34;;;;;;;16.70;8.38;;;;;;;6.54;56.97;100966.16;5058797;28;20052;-72
2022/12/11 10:56:02;;;;;;;15.80;9.13;;;;;;;6.68;56.86;100962.59;5053891;28;20109;-72
2022/12/11 10:58:32;;;;;;;18.63;9.55;;;;;;;6.82;56.44;100961.66;5059826;28;20064;-71
2022/12/11 11:01:09;;;;;;;15.02;8.60;;;;;;;7.00;56.00;100955.78;5053271;28;20053;-71
2022/12/11 11:03:51;;;;;;;14.35;7.93;;;;;;;6.96;55.74;100943.84;5050759;28;20058;-71
2022/12/11 11:06:21;;;;;;;12.75;7.97;;;;;;;6.94;55.97;100953.91;5051227;28;20075;-71
2022/12/11 11:08:50;;;;;;;16.08;9.02;;;;;;;6.81;56.28;100948.50;5062105;28;20116;-71
2022/12/11 11:11:25;;;;;;;17.50;8.13;;;;;;;6.63;56.43;100953.50;5049520;28;20061;-69
2022/12/11 11:14:06;;;;;;;14.52;7.78;;;;;;;6.49;57.17;100950.72;5059620;28;20063;-70
2022/12/11 11:16:38;;;;;;;15.43;8.55;;;;;;;6.31;57.51;100930.84;5055370;28;20063;-71
2022/12/11 11:19:07;;;;;;;14.10;8.38;;;;;;;6.32;57.82;100946.66;5053708;28;20056;-70
2022/12/11 11:21:35;;;;;;;14.57;7.50;;;;;;;6.25;58.00;100945.78;5061385;28;20147;-72
2022/12/11 11:24:03;;;;;;;15.27;8.63;;;;;;;6.21;58.27;100952.50;5058068;28;20041;-71
2022/12/11 11:26:33;;;;;;;13.68;7.85;;;;;;;6.14;58.28;100948.94;5060319;28;20078;-69
2022/12/11 11:29:28;;;;;;;14.73;8.00;;;;;;;6.10;58.80;100943.16;5062693;28;20044;-72
2022/12/11 11:32:00;;;;;;;13.68;8.10;;;;;;;6.08;58.65;100944.38;5062947;28;20044;-71
2022/12/11 11:34:29;;;;;;;12.35;7.13;;;;;;;6.08;58.74;100931.03;5053819;28;20120;-71
2022/12/11 11:37:04;;;;;;;15.18;8.50;;;;;;;6.04;58.62;100938.59;4703704;28;10000022;-72
2022/12/11 11:39:35;;;;;;;13.20;7.45;;;;;;;6.00;58.65;100934.66;5041421;28;20057;-71
2022/12/11 11:42:10;;;;;;;13.80;7.68;;;;;;;5.96;58.94;100933.38;5048437;28;20053;-71